Time,TemperatureF,DewpointF,PressureIn,WindDirection,WindDirectionDegrees,WindSpeedMPH,WindSpeedGustMPH,Humidity,HourlyPrecipIn,Conditions,Clouds,dailyrainin,SoftwareType,DateUTC
2013-05-25 04:10:00,67.8,55.2,28.59,WSW,238,5.0,10.0,64,0.00,04:10,,0.00,WeatherDisplay:WD co,2013-05-25 01:10:00,
2013-05-25 04:25:00,67.6,55.0,28.59,West,275,0.0,0.0,64,0.00,04:25,,0.00,WeatherDisplay:WD co,2013-05-25 01:25:00,
2013-05-25 04:55:00,67.8,53.9,28.59,WSW,257,0.0,8.0,61,0.00,04:55,,0.00,WeatherDisplay:WD co,2013-05-25 01:55:00,
2013-05-25 05:05:00,68.0,54.0,28.60,WSW,244,0.0,7.0,61,0.00,05:05,,0.00,WeatherDisplay:WD co,2013-05-25 02:05:00,
2013-05-25 06:00:00,66.9,54.3,28.60,West,260,1.0,5.0,64,0.00,06:00,,0.00,WeatherDisplay:WD co,2013-05-25 03:00:00,
2013-05-25 07:50:00,68.7,55.2,28.62,West,259,3.0,9.0,62,0.00,07:50,,0.00,WeatherDisplay:WD co,2013-05-25 04:50:00,
2013-05-25 08:00:00,69.3,54.8,28.62,West,265,0.0,8.0,60,0.00,08:00,,0.00,WeatherDisplay:WD co,2013-05-25 05:00:00,
2013-05-25 08:20:00,69.6,57.8,28.62,SW,234,6.0,11.0,66,0.00,08:20,,0.00,WeatherDisplay:WD co,2013-05-25 05:20:00,
2013-05-25 09:00:00,73.6,56.9,28.63,WSW,243,0.0,5.0,56,0.00,09:00,,0.00,WeatherDisplay:WD co,2013-05-25 06:00:00,
2013-05-25 09:55:00,73.6,55.4,28.63,SW,227,0.0,7.0,53,0.00,09:55,,0.00,WeatherDisplay:WD co,2013-05-25 06:55:00,
2013-05-25 11:10:00,75.2,55.8,28.64,South,190,6.0,13.0,51,0.00,11:10,,0.00,WeatherDisplay:WD co,2013-05-25 08:10:00,
2013-05-25 12:25:00,75.2,58.4,28.64,SW,215,6.0,15.0,56,0.00,12:25,,0.00,WeatherDisplay:WD co,2013-05-25 09:25:00,
2013-05-25 13:35:00,77.0,58.0,28.63,SSW,193,5.0,16.0,52,0.00,13:35,,0.00,WeatherDisplay:WD co,2013-05-25 10:35:00,
2013-05-25 16:00:00,77.4,61.4,28.62,SSW,196,0.0,4.0,58,0.00,16:00,,0.00,WeatherDisplay:WD co,2013-05-25 13:00:00,
2013-05-25 19:15:00,78.3,60.8,28.62,ENE,74,3.0,8.0,55,0.00,19:15,,0.00,WeatherDisplay:WD co,2013-05-25 16:15:00,
2013-05-25 19:40:00,78.1,61.1,28.61,East,97,0.0,3.0,56,0.00,19:40,,0.00,WeatherDisplay:WD co,2013-05-25 16:40:00,
2013-05-25 20:30:00,73.6,61.9,28.62,East,84,0.0,4.0,67,0.00,20:30,,0.00,WeatherDisplay:WD co,2013-05-25 17:30:00,
2013-05-25 21:00:00,72.3,62.8,28.63,East,90,0.0,9.0,72,0.00,21:00,,0.00,WeatherDisplay:WD co,2013-05-25 18:00:00,
2013-05-25 21:20:00,72.0,62.4,28.62,ENE,73,0.0,6.0,72,0.00,21:20,,0.00,WeatherDisplay:WD co,2013-05-25 18:20:00,
2013-05-25 21:50:00,72.5,61.7,28.63,WSW,258,0.0,0.0,69,0.00,21:50,,0.00,WeatherDisplay:WD co,2013-05-25 18:50:00,
2013-05-25 22:15:00,72.9,60.0,28.64,SSW,211,0.0,1.0,64,0.00,22:15,,0.00,WeatherDisplay:WD co,2013-05-25 19:15:00,
2013-05-25 23:20:00,72.3,59.9,28.65,SW,216,0.0,1.0,65,0.00,23:20,,0.00,WeatherDisplay:WD co,2013-05-25 20:20:00,